createdAt,value
2019-03-19T00:00:53.115Z,82.73
2019-03-19T00:03:39.538Z,82.73
2019-03-19T00:06:25.747Z,82.02
2019-03-19T00:09:12.654Z,82.02
2019-03-19T00:11:58.979Z,82.68
2019-03-19T00:14:45.903Z,82.98
2019-03-19T00:17:32.130Z,83.35
2019-03-19T00:20:18.033Z,83.69
2019-03-19T00:23:05.794Z,83.89
2019-03-19T00:25:53.161Z,84.05
2019-03-19T00:28:39.742Z,83.52
2019-03-19T00:31:26.079Z,83.65
2019-03-19T00:34:12.501Z,84.26
2019-03-19T00:36:58.809Z,84.08
2019-03-19T00:39:46.047Z,85.07
2019-03-19T00:42:31.946Z,86.50
2019-03-19T00:45:17.823Z,86.91
2019-03-19T00:48:04.394Z,85.32
2019-03-19T00:50:50.866Z,84.10
2019-03-19T00:53:38.523Z,83.58
2019-03-19T00:56:24.322Z,83.61
2019-03-19T00:59:10.965Z,83.71
2019-03-19T01:01:57.251Z,84.66
2019-03-19T01:04:43.263Z,84.89
2019-03-19T01:07:29.778Z,84.91
2019-03-19T01:10:17.469Z,84.56
2019-03-19T01:13:04.260Z,84.06
2019-03-19T01:15:50.974Z,84.85
2019-03-19T01:18:37.119Z,86.86
2019-03-19T01:21:23.166Z,87.26
2019-03-19T01:24:09.775Z,86.75
2019-03-19T01:26:55.783Z,85.87
2019-03-19T01:29:42.495Z,85.86
2019-03-19T01:32:28.943Z,86.19
2019-03-19T01:35:15.162Z,85.89
2019-03-19T01:38:01.515Z,86.50
2019-03-19T01:40:47.592Z,86.79
2019-03-19T01:43:33.795Z,85.57
2019-03-19T01:46:20.228Z,85.23
2019-03-19T01:49:06.331Z,85.87
2019-03-19T01:51:52.746Z,86.13
2019-03-19T01:54:39.556Z,87.15
2019-03-19T01:57:25.547Z,87.15
2019-03-19T02:00:12.130Z,86.91
2019-03-19T02:02:58.806Z,86.53
2019-03-19T02:05:44.854Z,85.88
2019-03-19T02:08:31.259Z,86.13
2019-03-19T02:11:17.970Z,85.93
2019-03-19T02:14:03.888Z,87.03
2019-03-19T02:16:50.051Z,86.80
2019-03-19T02:19:36.349Z,86.87
2019-03-19T02:22:22.340Z,86.53
2019-03-19T02:25:09.067Z,86.17
2019-03-19T02:27:55.624Z,85.54
2019-03-19T02:30:41.695Z,86.11
2019-03-19T02:33:27.768Z,86.10
2019-03-19T02:36:13.921Z,85.87
2019-03-19T02:39:00.035Z,86.65
2019-03-19T02:41:46.704Z,86.09
2019-03-19T02:44:32.676Z,85.60
2019-03-19T02:47:18.895Z,85.53
2019-03-19T02:50:08.085Z,85.37
2019-03-19T02:52:54.402Z,85.42
2019-03-19T02:55:40.700Z,85.32
2019-03-19T02:58:26.897Z,85.54
2019-03-19T03:01:13.256Z,87.03
2019-03-19T03:03:59.660Z,85.89
2019-03-19T03:06:45.814Z,85.89
2019-03-19T03:09:31.917Z,85.60
2019-03-19T03:12:19.885Z,85.62
2019-03-19T03:15:06.273Z,85.69
2019-03-19T03:17:52.518Z,85.68
2019-03-19T03:20:39.030Z,87.69
2019-03-19T03:23:25.100Z,86.60
2019-03-19T03:26:11.437Z,86.58
2019-03-19T03:28:57.852Z,86.03
2019-03-19T03:31:43.996Z,85.94
2019-03-19T03:34:30.695Z,86.36
2019-03-19T03:37:17.276Z,86.04
2019-03-19T03:40:03.403Z,85.91
2019-03-19T03:42:50.160Z,86.47
2019-03-19T03:45:36.469Z,86.21
2019-03-19T03:48:22.341Z,86.12
2019-03-19T03:51:08.990Z,86.50
2019-03-19T03:53:55.417Z,86.52
2019-03-19T03:56:42.332Z,86.56
2019-03-19T03:59:28.643Z,86.32
2019-03-19T04:02:15.205Z,86.69
2019-03-19T04:05:01.723Z,87.02
2019-03-19T04:07:48.019Z,86.88
2019-03-19T04:10:34.513Z,86.62
2019-03-19T04:13:21.280Z,86.53
2019-03-19T04:16:07.527Z,86.44
2019-03-19T04:18:53.859Z,86.59
2019-03-19T04:21:40.067Z,86.85
2019-03-19T04:24:26.238Z,87.06
2019-03-19T04:27:16.163Z,86.70
2019-03-19T04:30:02.694Z,86.77
2019-03-19T04:32:49.006Z,86.51
2019-03-19T04:35:35.829Z,86.60
2019-03-19T04:38:21.846Z,86.57
2019-03-19T04:41:08.021Z,86.15
2019-03-19T04:43:55.618Z,86.02
2019-03-19T04:46:41.814Z,86.49
2019-03-19T04:49:27.877Z,86.42
2019-03-19T04:52:14.662Z,86.19
2019-03-19T04:55:00.899Z,86.78
2019-03-19T04:57:46.992Z,87.13
2019-03-19T05:00:34.228Z,86.90
2019-03-19T05:03:20.071Z,87.68
2019-03-19T05:06:06.237Z,87.21
2019-03-19T05:08:53.152Z,86.91
2019-03-19T05:11:39.482Z,86.54
2019-03-19T05:14:25.985Z,86.65
2019-03-19T05:17:12.497Z,86.97
2019-03-19T05:19:58.646Z,86.81
2019-03-19T05:22:45.550Z,86.87
2019-03-19T05:25:31.957Z,86.64
2019-03-19T05:28:19.257Z,86.63
2019-03-19T05:31:05.624Z,86.63
2019-03-19T05:33:51.865Z,86.95
2019-03-19T05:36:37.777Z,87.58
2019-03-19T05:39:25.655Z,88.19
2019-03-19T05:42:12.068Z,88.36
2019-03-19T05:44:58.269Z,88.82
2019-03-19T05:47:44.519Z,88.61
2019-03-19T05:50:30.449Z,87.84
2019-03-19T05:53:17.761Z,87.49
2019-03-19T05:56:04.393Z,86.86
2019-03-19T05:58:50.462Z,86.61
2019-03-19T06:01:36.714Z,86.57
2019-03-19T06:04:25.381Z,86.26
2019-03-19T06:07:11.425Z,86.28
2019-03-19T06:09:57.448Z,86.53
2019-03-19T06:12:46.134Z,86.39
2019-03-19T06:15:32.002Z,85.35
2019-03-19T06:18:17.814Z,83.89
2019-03-19T06:21:04.267Z,83.08
2019-03-19T06:23:50.212Z,81.67
2019-03-19T06:26:36.045Z,80.49
2019-03-19T06:29:22.562Z,80.49
2019-03-19T06:32:08.722Z,80.15
2019-03-19T06:34:55.150Z,81.30
2019-03-19T06:37:41.505Z,81.17
2019-03-19T06:40:27.422Z,79.51
2019-03-19T06:43:16.924Z,73.04
2019-03-19T06:46:03.426Z,73.04
2019-03-19T06:48:49.445Z,71.00
2019-03-19T06:51:35.990Z,67.41
2019-03-19T06:54:23.274Z,66.37
2019-03-19T06:57:09.104Z,64.52
2019-03-19T06:59:55.581Z,62.92
2019-03-19T07:02:41.817Z,62.54
2019-03-19T07:05:27.889Z,60.16
2019-03-19T07:08:14.280Z,60.31
2019-03-19T07:11:01.450Z,58.82
2019-03-19T07:13:47.469Z,60.08
2019-03-19T07:16:33.398Z,62.33
2019-03-19T07:19:28.121Z,63.89
2019-03-19T07:22:17.149Z,64.82
2019-03-19T07:25:03.779Z,66.40
2019-03-19T07:27:50.560Z,63.91
2019-03-19T07:30:36.614Z,63.97
2019-03-19T07:33:22.709Z,64.59
2019-03-19T07:36:09.157Z,63.87
2019-03-19T07:38:55.418Z,63.12
2019-03-19T07:41:50.393Z,61.29
2019-03-19T07:44:44.738Z,56.83
2019-03-19T07:47:31.073Z,55.74
2019-03-19T07:50:17.553Z,55.66
2019-03-19T07:53:03.894Z,53.36
2019-03-19T07:55:50.648Z,60.55
2019-03-19T07:58:45.117Z,55.57
2019-03-19T08:01:25.178Z,58.72
2019-03-19T08:04:11.634Z,57.68
2019-03-19T08:06:57.997Z,55.09
2019-03-19T08:09:44.405Z,56.77
2019-03-19T08:12:30.574Z,55.12
2019-03-19T08:15:16.661Z,53.49
2019-03-19T08:18:02.734Z,52.21
2019-03-19T08:20:48.750Z,56.46
2019-03-19T08:23:34.878Z,57.81
2019-03-19T08:26:21.490Z,58.66
2019-03-19T08:29:07.522Z,56.29
2019-03-19T08:31:54.051Z,61.72
2019-03-19T08:34:40.860Z,55.34
2019-03-19T08:37:26.666Z,54.35
2019-03-19T08:40:13.532Z,60.89
2019-03-19T08:42:59.797Z,54.87
2019-03-19T08:45:45.906Z,55.51
2019-03-19T08:48:31.882Z,57.15
2019-03-19T08:51:19.816Z,56.16
2019-03-19T08:54:05.839Z,51.63
2019-03-19T08:56:52.318Z,56.44
2019-03-19T08:59:40.146Z,56.62
2019-03-19T09:02:26.125Z,57.05
2019-03-19T09:05:14.750Z,54.11
2019-03-19T09:08:01.636Z,54.09
2019-03-19T09:10:47.540Z,56.53
2019-03-19T09:13:33.773Z,55.39
2019-03-19T09:16:20.301Z,55.81
2019-03-19T09:19:06.625Z,53.71
2019-03-19T09:21:52.633Z,64.49
2019-03-19T09:24:39.595Z,60.24
2019-03-19T09:27:26.729Z,57.32
2019-03-19T09:30:13.769Z,53.11
2019-03-19T09:33:00.312Z,54.55
2019-03-19T09:35:46.150Z,56.21
2019-03-19T09:38:32.309Z,58.49
2019-03-19T09:41:19.371Z,59.06
2019-03-19T09:44:05.473Z,56.42
2019-03-19T09:46:51.441Z,55.93
2019-03-19T09:49:38.205Z,61.49
2019-03-19T09:52:24.158Z,59.46
2019-03-19T09:55:10.758Z,63.92
2019-03-19T09:57:58.111Z,59.83
2019-03-19T10:00:46.672Z,59.31
2019-03-19T10:03:32.579Z,62.71
2019-03-19T10:06:19.401Z,60.69
2019-03-19T10:09:07.557Z,57.41
2019-03-19T10:11:53.865Z,54.55
2019-03-19T10:14:40.254Z,50.57
2019-03-19T10:17:26.202Z,50.51
2019-03-19T10:20:13.421Z,48.85
2019-03-19T10:23:01.782Z,48.21
2019-03-19T10:25:47.995Z,52.92
2019-03-19T10:28:34.396Z,50.44
2019-03-19T10:31:21.215Z,49.84
2019-03-19T10:34:07.000Z,49.69
2019-03-19T10:36:53.707Z,49.75
2019-03-19T10:39:40.109Z,45.91
2019-03-19T10:42:26.022Z,45.45
2019-03-19T10:45:11.986Z,47.42
2019-03-19T10:47:58.899Z,50.36
2019-03-19T10:50:45.201Z,48.16
2019-03-19T10:53:31.190Z,50.85
2019-03-19T10:56:18.187Z,54.78
2019-03-19T10:59:04.305Z,56.60
2019-03-19T11:01:51.511Z,55.66
2019-03-19T11:04:38.772Z,55.83
2019-03-19T11:07:24.866Z,55.83
2019-03-19T11:10:11.386Z,50.93
2019-03-19T11:12:57.594Z,51.94
2019-03-19T11:15:44.466Z,53.18
2019-03-19T11:18:30.850Z,54.42
2019-03-19T11:21:19.199Z,53.34
2019-03-19T11:24:05.415Z,53.78
2019-03-19T11:26:52.106Z,51.28
2019-03-19T11:29:38.118Z,54.59
2019-03-19T11:32:24.551Z,51.16
2019-03-19T11:35:11.906Z,48.25
2019-03-19T11:37:58.529Z,51.82
2019-03-19T11:40:44.622Z,52.64
2019-03-19T11:43:31.158Z,49.75
2019-03-19T11:46:17.322Z,45.39
2019-03-19T11:49:03.425Z,49.57
2019-03-19T11:51:50.021Z,54.00
2019-03-19T11:54:36.089Z,52.70
2019-03-19T11:57:22.193Z,52.73
2019-03-19T12:00:18.958Z,49.43
2019-03-19T12:03:12.665Z,47.05
2019-03-19T12:05:53.424Z,46.75
2019-03-19T12:08:39.731Z,44.65
2019-03-19T12:11:26.374Z,45.74
2019-03-19T12:14:12.462Z,48.26
2019-03-19T12:16:58.890Z,46.99
2019-03-19T12:19:45.246Z,46.51
2019-03-19T12:22:33.340Z,43.42
2019-03-19T12:25:19.434Z,44.87
2019-03-19T12:28:06.141Z,43.30
2019-03-19T12:30:54.836Z,46.24
2019-03-19T12:33:41.563Z,47.44
2019-03-19T12:36:28.512Z,48.13
2019-03-19T12:39:16.356Z,45.96
2019-03-19T12:42:02.652Z,43.62
2019-03-19T12:44:49.576Z,42.21
2019-03-19T12:47:36.467Z,45.07
2019-03-19T12:50:23.109Z,46.28
2019-03-19T12:53:08.668Z,45.97
2019-03-19T12:55:55.359Z,47.70
2019-03-19T12:58:41.473Z,45.70
2019-03-19T13:01:28.664Z,44.48
2019-03-19T13:04:14.815Z,39.17
2019-03-19T13:07:03.489Z,44.05
2019-03-19T13:09:49.694Z,43.78
2019-03-19T13:12:36.007Z,44.12
2019-03-19T13:15:22.527Z,44.78
2019-03-19T13:18:09.348Z,42.08
2019-03-19T13:20:55.355Z,42.53
2019-03-19T13:23:41.804Z,38.94
2019-03-19T13:26:27.804Z,42.47
2019-03-19T13:29:14.105Z,42.72
2019-03-19T13:32:00.818Z,43.41
2019-03-19T13:34:47.074Z,46.54
2019-03-19T13:37:33.144Z,45.78
2019-03-19T13:40:19.887Z,49.12
2019-03-19T13:43:06.161Z,46.08
2019-03-19T13:45:51.922Z,45.07
2019-03-19T13:48:37.996Z,47.72
2019-03-19T13:51:23.899Z,43.21
2019-03-19T13:54:10.784Z,43.23
2019-03-19T13:56:57.136Z,45.69
2019-03-19T13:59:43.020Z,49.01
2019-03-19T14:02:29.832Z,44.76
2019-03-19T14:05:15.720Z,42.42
2019-03-19T14:08:02.572Z,42.23
2019-03-19T14:10:48.539Z,40.55
2019-03-19T14:13:34.751Z,44.67
2019-03-19T14:16:22.495Z,41.76
2019-03-19T14:19:08.709Z,42.57
2019-03-19T14:21:54.716Z,43.54
2019-03-19T14:24:41.011Z,42.61
2019-03-19T14:27:28.253Z,43.33
2019-03-19T14:30:15.604Z,46.01
2019-03-19T14:33:01.679Z,46.71
2019-03-19T14:35:48.126Z,48.96
2019-03-19T14:38:34.766Z,47.67
2019-03-19T14:41:20.682Z,47.08
2019-03-19T14:44:06.877Z,43.68
2019-03-19T14:46:53.590Z,44.56
2019-03-19T14:49:46.949Z,45.37
2019-03-19T14:52:28.115Z,43.42
2019-03-19T14:55:13.974Z,45.62
2019-03-19T14:58:00.125Z,43.33
2019-03-19T15:00:48.154Z,46.19
2019-03-19T15:03:34.258Z,46.28
2019-03-19T15:06:20.242Z,46.01
2019-03-19T15:09:09.676Z,47.42
2019-03-19T15:12:03.182Z,46.53
2019-03-19T15:14:59.169Z,46.62
2019-03-19T15:17:45.701Z,46.15
2019-03-19T15:20:31.418Z,46.01
2019-03-19T15:23:27.526Z,45.38
2019-03-19T15:26:13.813Z,47.11
2019-03-19T15:29:00.262Z,47.84
2019-03-19T15:31:46.578Z,46.44
2019-03-19T15:34:33.239Z,47.44
2019-03-19T15:37:19.448Z,46.36
2019-03-19T15:40:06.728Z,46.39
2019-03-19T15:42:52.999Z,46.87
2019-03-19T15:45:39.006Z,48.34
2019-03-19T15:48:25.339Z,46.47
2019-03-19T15:51:12.898Z,46.99
2019-03-19T15:53:59.119Z,49.35
2019-03-19T15:56:45.036Z,47.54
2019-03-19T15:59:30.650Z,47.27
2019-03-19T16:02:17.034Z,47.81
2019-03-19T16:05:05.669Z,48.25
2019-03-19T16:07:51.982Z,48.83
2019-03-19T16:10:38.164Z,49.23
2019-03-19T16:13:24.710Z,49.22
2019-03-19T16:16:10.689Z,50.17
2019-03-19T16:18:57.222Z,48.72
2019-03-19T16:21:43.676Z,49.64
2019-03-19T16:24:33.708Z,50.34
2019-03-19T16:27:20.036Z,49.37
2019-03-19T16:30:06.887Z,49.96
2019-03-19T16:32:52.769Z,50.67
2019-03-19T16:35:39.373Z,49.12
2019-03-19T16:38:25.523Z,49.88
2019-03-19T16:41:11.680Z,51.11
2019-03-19T16:44:01.414Z,51.90
2019-03-19T16:46:47.349Z,51.54
2019-03-19T16:49:33.381Z,51.26
2019-03-19T16:52:19.773Z,54.13
2019-03-19T16:55:05.985Z,52.83
2019-03-19T16:57:55.487Z,54.26
2019-03-19T17:00:41.608Z,52.85
2019-03-19T17:03:28.379Z,53.40
2019-03-19T17:06:14.311Z,53.55
2019-03-19T17:08:59.921Z,53.42
2019-03-19T17:11:46.449Z,54.78
2019-03-19T17:14:32.457Z,55.30
2019-03-19T17:17:18.701Z,53.92
2019-03-19T17:20:06.145Z,55.45
2019-03-19T17:22:52.593Z,55.43
2019-03-19T17:25:38.937Z,55.21
2019-03-19T17:28:25.681Z,55.85
2019-03-19T17:31:11.627Z,56.26
2019-03-19T17:33:57.460Z,57.73
2019-03-19T17:36:43.812Z,58.99
2019-03-19T17:39:29.669Z,59.59
2019-03-19T17:42:23.741Z,59.14
2019-03-19T17:45:17.349Z,58.60
2019-03-19T17:48:03.087Z,59.55
2019-03-19T17:50:50.610Z,59.59
2019-03-19T17:53:36.871Z,60.77
2019-03-19T17:56:23.005Z,61.45
2019-03-19T17:59:09.772Z,61.76
2019-03-19T18:01:56.398Z,62.04
2019-03-19T18:04:44.454Z,62.17
2019-03-19T18:07:34.362Z,65.11
2019-03-19T18:10:21.608Z,65.87
2019-03-19T18:13:08.051Z,66.02
2019-03-19T18:15:56.233Z,66.74
2019-03-19T18:18:43.610Z,67.48
2019-03-19T18:21:32.175Z,66.81
2019-03-19T18:24:18.298Z,66.64
2019-03-19T18:27:04.628Z,66.02
2019-03-19T18:29:51.310Z,67.61
2019-03-19T18:32:37.290Z,67.16
2019-03-19T18:35:23.910Z,67.90
2019-03-19T18:38:09.904Z,67.55
2019-03-19T18:40:56.130Z,67.81
2019-03-19T18:43:42.242Z,70.50
2019-03-19T18:46:28.430Z,70.18
2019-03-19T18:49:15.122Z,70.50
2019-03-19T18:52:01.864Z,69.97
2019-03-19T18:54:47.837Z,70.84
2019-03-19T18:57:34.538Z,70.17
2019-03-19T19:00:20.849Z,70.00
2019-03-19T19:03:07.079Z,69.17
2019-03-19T19:05:53.638Z,68.66
2019-03-19T19:08:40.177Z,66.82
2019-03-19T19:11:26.111Z,65.81
2019-03-19T19:14:13.052Z,66.36
2019-03-19T19:16:59.107Z,65.83
2019-03-19T19:19:45.327Z,66.70
2019-03-19T19:22:32.036Z,66.20
2019-03-19T19:25:17.935Z,67.29
2019-03-19T19:28:04.450Z,67.79
2019-03-19T19:30:50.484Z,69.05
2019-03-19T19:33:36.584Z,68.90
2019-03-19T19:36:23.091Z,68.81
2019-03-19T19:39:08.992Z,67.80
2019-03-19T19:41:55.205Z,66.93
2019-03-19T19:44:41.608Z,67.35
2019-03-19T19:47:27.980Z,66.53
2019-03-19T19:50:16.377Z,66.33
2019-03-19T19:53:03.905Z,65.84
2019-03-19T19:55:52.347Z,65.31
2019-03-19T19:58:39.698Z,65.14
2019-03-19T20:01:25.598Z,65.08
2019-03-19T20:04:11.785Z,65.35
2019-03-19T20:06:57.801Z,65.25
2019-03-19T20:09:44.118Z,65.15
2019-03-19T20:12:30.730Z,65.61
2019-03-19T20:15:17.441Z,65.64
2019-03-19T20:18:04.773Z,65.54
2019-03-19T20:20:51.138Z,65.16
2019-03-19T20:23:37.065Z,64.51
2019-03-19T20:26:23.302Z,64.33
2019-03-19T20:29:09.466Z,64.58
2019-03-19T20:31:56.751Z,64.29
2019-03-19T20:34:42.979Z,64.19
2019-03-19T20:37:29.579Z,64.53
2019-03-19T20:40:16.362Z,64.23
2019-03-19T20:43:02.896Z,64.48
2019-03-19T20:45:48.682Z,64.48
2019-03-19T20:48:36.115Z,64.31
2019-03-19T20:51:22.196Z,64.12
2019-03-19T20:54:07.781Z,64.37
2019-03-19T20:56:54.578Z,64.39
2019-03-19T20:59:40.623Z,64.09
2019-03-19T21:02:26.596Z,64.48
2019-03-19T21:05:12.992Z,64.70
2019-03-19T21:07:59.397Z,64.80
2019-03-19T21:10:46.002Z,64.55
2019-03-19T21:13:32.409Z,64.53
2019-03-19T21:16:18.698Z,65.00
2019-03-19T21:19:08.055Z,65.68
2019-03-19T21:21:54.145Z,65.29
2019-03-19T21:24:40.262Z,65.26
2019-03-19T21:27:26.866Z,65.02
2019-03-19T21:30:14.760Z,64.97
2019-03-19T21:33:00.998Z,65.24
2019-03-19T21:35:47.501Z,64.99
2019-03-19T21:38:34.626Z,65.65
2019-03-19T21:41:20.744Z,65.27
2019-03-19T21:44:07.351Z,65.60
2019-03-19T21:46:53.242Z,65.60
2019-03-19T21:49:39.759Z,66.67
2019-03-19T21:52:26.373Z,66.02
2019-03-19T21:55:14.297Z,66.11
2019-03-19T21:58:01.054Z,66.12
2019-03-19T22:00:47.277Z,67.36
2019-03-19T22:03:33.309Z,66.57
2019-03-19T22:06:19.457Z,67.79
2019-03-19T22:09:06.648Z,68.66
2019-03-19T22:11:53.136Z,68.36
2019-03-19T22:14:38.821Z,67.87
2019-03-19T22:17:25.352Z,68.34
2019-03-19T22:20:12.337Z,69.82
2019-03-19T22:22:58.900Z,69.39
2019-03-19T22:25:44.856Z,68.37
2019-03-19T22:28:31.465Z,67.87
2019-03-19T22:31:17.871Z,67.77
2019-03-19T22:34:13.723Z,67.72
2019-03-19T22:36:52.197Z,67.52
2019-03-19T22:39:38.538Z,67.25
2019-03-19T22:42:25.260Z,67.25
2019-03-19T22:45:12.732Z,67.36
2019-03-19T22:47:59.254Z,67.40
2019-03-19T22:50:45.809Z,67.51
2019-03-19T22:53:31.799Z,67.51
2019-03-19T22:56:18.107Z,67.71
2019-03-19T22:59:04.642Z,67.84
2019-03-19T23:01:51.372Z,67.92
2019-03-19T23:04:37.890Z,67.85
2019-03-19T23:07:24.365Z,68.23
2019-03-19T23:10:10.415Z,68.32
2019-03-19T23:12:56.956Z,68.59
2019-03-19T23:15:43.768Z,69.24
2019-03-19T23:18:29.871Z,69.44
2019-03-19T23:21:16.079Z,69.86
2019-03-19T23:24:02.487Z,70.41
2019-03-19T23:26:48.383Z,70.96
2019-03-19T23:29:34.482Z,70.95
2019-03-19T23:32:20.412Z,71.41
2019-03-19T23:35:07.070Z,71.32
2019-03-19T23:37:53.539Z,71.50
2019-03-19T23:40:39.732Z,71.54
2019-03-19T23:43:25.961Z,71.38
2019-03-19T23:46:12.467Z,71.66
2019-03-19T23:48:58.767Z,71.50
2019-03-19T23:51:44.992Z,71.18
2019-03-19T23:54:31.323Z,71.78
2019-03-19T23:57:18.299Z,71.67
